Time;durP1;ratioP1;P1;durP2;ratioP2;P2;SDS_P1;SDS_P2;PMS_P1;PMS_P2;Temp;Humidity;BMP_temperature;BMP_pressure;BME280_temperature;BME280_humidity;BME280_pressure;Samples;Min_cycle;Max_cycle;Signal;HPM_P1;HPM_P2
2021/06/23 00:00:57;;;;;;;11.35;3.70;;;;;;;23.13;100.00;100583.02;1847918;77;20976;-82
2021/06/23 00:03:23;;;;;;;6.60;3.60;;;;;;;23.15;100.00;100587.36;1848137;77;20939;-80
2021/06/23 00:05:49;;;;;;;9.93;2.90;;;;;;;23.16;100.00;100587.60;1835295;77;21134;-83
2021/06/23 00:08:15;;;;;;;9.55;2.27;;;;;;;23.20;100.00;100581.62;1826181;78;21120;-80
2021/06/23 00:10:41;;;;;;;6.28;2.67;;;;;;;23.22;100.00;100571.09;1826054;78;21474;-80
2021/06/23 00:13:09;;;;;;;8.50;2.40;;;;;;;23.22;100.00;100571.09;1826088;77;20865;-80
2021/06/23 00:15:37;;;;;;;6.95;2.08;;;;;;;23.23;100.00;100582.31;1825749;78;21036;-80
2021/06/23 00:18:05;;;;;;;7.50;2.00;;;;;;;23.21;100.00;100577.75;1826092;78;21020;-80
2021/06/23 00:20:32;;;;;;;9.65;2.30;;;;;;;23.20;100.00;100580.25;1825954;78;21221;-79
2021/06/23 00:22:58;;;;;;;3.45;2.17;;;;;;;23.18;100.00;100571.54;1825940;78;21868;-77
2021/06/23 00:25:24;;;;;;;5.83;2.42;;;;;;;23.20;100.00;100567.88;1825853;78;20953;-81
2021/06/23 00:27:50;;;;;;;7.70;2.30;;;;;;;23.22;100.00;100573.27;1826163;78;20865;-79
2021/06/23 00:30:17;;;;;;;10.15;2.55;;;;;;;23.20;100.00;100565.13;1826214;78;21740;-82
2021/06/23 00:32:46;;;;;;;7.75;2.45;;;;;;;23.20;100.00;100578.30;1826154;78;21888;-80
2021/06/23 00:35:14;;;;;;;9.50;2.80;;;;;;;23.21;100.00;100580.50;1825890;78;20965;-78
2021/06/23 00:37:40;;;;;;;5.58;2.00;;;;;;;23.24;100.00;100585.31;1826126;78;21007;-79
2021/06/23 00:40:07;;;;;;;9.15;2.00;;;;;;;23.25;100.00;100593.78;1826015;78;21027;-80
2021/06/23 00:42:35;;;;;;;10.88;2.83;;;;;;;23.24;100.00;100596.31;1826120;78;20972;-80
2021/06/23 00:45:07;;;;;;;13.98;2.70;;;;;;;23.24;100.00;100597.10;1826064;78;21532;-78
2021/06/23 00:47:34;;;;;;;6.12;2.47;;;;;;;23.25;100.00;100593.78;1769498;81;21133;-80
2021/06/23 00:50:07;;;;;;;6.17;2.30;;;;;;;23.25;100.00;100597.91;1769599;79;20998;-86
2021/06/23 00:52:34;;;;;;;4.35;2.35;;;;;;;23.27;100.00;100602.49;1769793;81;21037;-80
2021/06/23 00:55:02;;;;;;;6.25;2.77;;;;;;;23.30;100.00;100599.05;1769369;81;21018;-81
2021/06/23 00:57:30;;;;;;;7.28;3.27;;;;;;;23.31;100.00;100583.56;1769836;81;21046;-80
2021/06/23 00:59:56;;;;;;;8.65;2.87;;;;;;;23.33;100.00;100592.28;1765094;81;21489;-80
2021/06/23 01:02:25;;;;;;;10.32;2.58;;;;;;;23.33;100.00;100588.16;1769529;81;21049;-80
2021/06/23 01:04:53;;;;;;;12.13;3.12;;;;;;;23.34;100.00;100584.24;1770085;79;21473;-80
2021/06/23 01:07:21;;;;;;;6.85;2.77;;;;;;;23.37;100.00;100571.75;1795814;79;21523;-77
2021/06/23 01:09:47;;;;;;;8.00;3.30;;;;;;;23.39;100.00;100572.80;1795424;79;21925;-80
2021/06/23 01:12:25;;;;;;;13.05;3.15;;;;;;;23.42;100.00;100583.10;1795596;79;21178;-80
2021/06/23 01:14:54;;;;;;;9.80;2.80;;;;;;;23.41;100.00;100579.52;1795326;79;21071;-80
2021/06/23 01:17:21;;;;;;;5.15;2.62;;;;;;;23.37;100.00;100569.58;1795720;79;21101;-79
2021/06/23 01:19:49;;;;;;;4.97;2.58;;;;;;;23.29;100.00;100576.80;1795958;79;20981;-85
2021/06/23 01:22:16;;;;;;;10.23;2.98;;;;;;;23.25;100.00;100580.03;1795926;79;21118;-80
2021/06/23 01:24:44;;;;;;;7.95;2.75;;;;;;;23.21;100.00;100589.55;1795403;79;21051;-79
2021/06/23 01:27:11;;;;;;;9.13;3.10;;;;;;;23.17;100.00;100585.87;1769214;79;21105;-80
2021/06/23 01:29:39;;;;;;;7.40;2.75;;;;;;;23.14;100.00;100587.93;1795808;79;21133;-83
2021/06/23 01:32:09;;;;;;;8.10;3.52;;;;;;;23.13;100.00;100581.64;1795987;79;21055;-80
2021/06/23 01:34:36;;;;;;;8.35;2.98;;;;;;;23.12;100.00;100586.92;1796035;79;21226;-80
2021/06/23 01:37:02;;;;;;;9.70;3.12;;;;;;;23.11;100.00;100592.17;1795927;79;21004;-80
2021/06/23 01:39:28;;;;;;;9.75;2.87;;;;;;;23.13;100.00;100592.64;1795829;79;21099;-77
2021/06/23 01:41:54;;;;;;;9.90;3.02;;;;;;;23.08;100.00;100596.98;1795752;79;21139;-80
2021/06/23 01:44:20;;;;;;;7.97;2.92;;;;;;;23.05;100.00;100603.75;1803475;77;20924;-80
2021/06/23 01:46:47;;;;;;;7.30;2.90;;;;;;;23.04;100.00;100600.20;1809240;79;21027;-79
2021/06/23 01:49:14;;;;;;;6.20;2.70;;;;;;;23.01;100.00;100601.47;1809664;79;20988;-80
2021/06/23 01:51:40;;;;;;;5.83;3.08;;;;;;;23.00;100.00;100589.67;1807990;78;21075;-80
2021/06/23 01:54:06;;;;;;;10.20;2.30;;;;;;;23.07;100.00;100584.97;1809626;78;20856;-80
2021/06/23 01:56:32;;;;;;;6.12;2.22;;;;;;;23.07;100.00;100587.72;1809560;79;20872;-80
2021/06/23 01:58:58;;;;;;;7.90;2.70;;;;;;;23.05;100.00;100586.67;1798142;79;21069;-84
2021/06/23 02:01:58;;;;;;;9.43;2.50;;;;;;;23.00;100.00;100584.19;1807419;78;20949;-80
2021/06/23 02:04:38;;;;;;;5.78;2.25;;;;;;;22.98;100.00;100577.42;1795719;79;21613;-80
2021/06/23 02:07:36;;;;;;;7.60;3.00;;;;;;;23.00;100.00;100571.81;1781263;80;21042;-78
2021/06/23 02:10:24;;;;;;;10.28;2.72;;;;;;;23.05;100.00;100574.30;1782275;80;21174;-80
2021/06/23 02:13:47;;;;;;;7.37;2.55;;;;;;;23.03;100.00;100580.74;1782494;80;21966;-79
2021/06/23 02:16:14;;;;;;;7.22;3.10;;;;;;;22.98;100.00;100578.22;1782669;80;21059;-80
2021/06/23 02:18:41;;;;;;;8.63;2.92;;;;;;;22.99;100.00;100578.44;1782611;80;21038;-81
2021/06/23 02:21:07;;;;;;;8.85;3.17;;;;;;;23.02;100.00;100584.62;1782256;80;21003;-80
2021/06/23 02:23:39;;;;;;;8.13;2.87;;;;;;;23.09;100.00;100586.23;1782550;80;21550;-80
2021/06/23 02:26:05;;;;;;;5.65;3.17;;;;;;;23.11;100.00;100581.17;1782644;80;21200;-79
2021/06/23 02:28:31;;;;;;;12.55;3.02;;;;;;;23.16;100.00;100587.02;1782405;80;21018;-79
2021/06/23 02:30:58;;;;;;;5.97;3.30;;;;;;;23.18;100.00;100585.28;1782405;80;21538;-80
2021/06/23 02:33:24;;;;;;;12.37;3.20;;;;;;;23.23;100.00;100591.36;1782191;80;21507;-80
2021/06/23 02:35:53;;;;;;;9.23;3.02;;;;;;;23.26;100.00;100592.63;1782314;80;21054;-79
2021/06/23 02:38:19;;;;;;;9.23;3.02;;;;;;;23.29;100.00;100600.17;1782546;80;21526;-76
2021/06/23 02:40:46;;;;;;;8.23;2.67;;;;;;;23.32;100.00;100607.73;1781671;80;20980;-80
2021/06/23 02:43:12;;;;;;;12.10;3.40;;;;;;;23.28;100.00;100617.83;1779792;80;21063;-80
2021/06/23 02:45:38;;;;;;;6.28;2.95;;;;;;;23.25;100.00;100623.45;1779473;80;21027;-78
2021/06/23 02:48:05;;;;;;;11.95;3.50;;;;;;;23.20;100.00;100630.55;1779756;80;21077;-80
2021/06/23 02:50:40;;;;;;;10.70;3.50;;;;;;;23.19;100.00;100633.66;1779353;80;22053;-85
2021/06/23 02:53:06;;;;;;;8.95;3.85;;;;;;;23.18;100.00;100632.86;1656917;86;21068;-80
2021/06/23 02:55:32;;;;;;;11.63;3.35;;;;;;;23.15;100.00;100648.67;1656992;86;21092;-81
2021/06/23 02:57:59;;;;;;;8.50;3.12;;;;;;;23.11;100.00;100655.98;1685769;84;20993;-81
2021/06/23 03:00:25;;;;;;;9.98;3.85;;;;;;;23.06;100.00;100661.15;1690944;84;21085;-81
2021/06/23 03:02:51;;;;;;;10.38;3.70;;;;;;;22.98;100.00;100664.00;1690487;84;21592;-81
2021/06/23 03:05:17;;;;;;;10.78;3.90;;;;;;;22.91;100.00;100659.02;1690610;84;20860;-84
2021/06/23 03:07:44;;;;;;;9.33;3.95;;;;;;;22.88;100.00;100657.78;1690952;84;20914;-81
2021/06/23 03:10:13;;;;;;;11.88;3.95;;;;;;;22.88;100.00;100657.78;1690836;84;21022;-78
2021/06/23 03:12:40;;;;;;;11.40;3.50;;;;;;;22.92;100.00;100657.89;1690964;84;21116;-80
2021/06/23 03:15:08;;;;;;;10.85;3.45;;;;;;;22.96;100.00;100659.41;1690726;84;22025;-80
2021/06/23 03:17:34;;;;;;;9.50;3.60;;;;;;;23.00;100.00;100649.33;1689437;84;21037;-79
2021/06/23 03:20:12;;;;;;;12.63;3.52;;;;;;;23.05;100.00;100651.28;1690533;84;21086;-78
2021/06/23 03:22:38;;;;;;;10.88;4.50;;;;;;;23.12;100.00;100659.78;1690302;84;21070;-81
2021/06/23 03:25:06;;;;;;;16.12;3.72;;;;;;;23.19;100.00;100665.27;1690845;84;20879;-80
2021/06/23 03:27:32;;;;;;;11.38;3.87;;;;;;;23.27;100.00;100660.24;1690959;84;21194;-80
2021/06/23 03:29:58;;;;;;;9.88;3.72;;;;;;;23.36;100.00;100666.42;1690633;84;21131;-79
2021/06/23 03:32:24;;;;;;;18.07;4.65;;;;;;;23.50;100.00;100679.25;1690617;84;21111;-80
2021/06/23 03:34:50;;;;;;;17.05;4.03;;;;;;;23.65;100.00;100682.42;1690979;84;21101;-80
2021/06/23 03:37:16;;;;;;;9.03;3.58;;;;;;;23.75;100.00;100691.63;1690906;84;21090;-80
2021/06/23 03:39:43;;;;;;;16.25;4.30;;;;;;;23.79;100.00;100699.41;1690842;84;21090;-80
2021/06/23 03:42:09;;;;;;;10.08;3.83;;;;;;;23.82;100.00;100706.17;1690826;84;21501;-79
2021/06/23 03:44:36;;;;;;;10.78;4.17;;;;;;;23.88;100.00;100708.91;1690738;84;21042;-80
2021/06/23 03:47:02;;;;;;;13.00;3.80;;;;;;;23.96;100.00;100715.66;1690831;84;21058;-80
2021/06/23 03:49:29;;;;;;;13.93;4.28;;;;;;;24.07;100.00;100715.98;1738961;77;21578;-80
2021/06/23 03:51:55;;;;;;;12.98;3.98;;;;;;;24.17;100.00;100706.42;1848166;77;21119;-80
2021/06/23 03:54:21;;;;;;;9.80;4.22;;;;;;;24.32;100.00;100703.50;1848194;77;20860;-79
2021/06/23 03:56:47;;;;;;;8.80;4.50;;;;;;;24.55;100.00;100714.81;1848147;77;20954;-83
2021/06/23 03:59:13;;;;;;;11.57;4.62;;;;;;;24.75;100.00;100728.95;1848025;77;20840;-83
2021/06/23 04:01:39;;;;;;;25.82;4.60;;;;;;;25.04;100.00;100720.85;1848318;77;21011;-77
2021/06/23 04:04:05;;;;;;;10.85;4.33;;;;;;;25.46;100.00;100720.91;1848196;77;21065;-80
2021/06/23 04:06:32;;;;;;;16.02;5.05;;;;;;;25.83;100.00;100716.70;1847884;77;20873;-80
2021/06/23 04:08:58;;;;;;;26.20;5.80;;;;;;;26.09;100.00;100724.13;1848251;77;21007;-83
2021/06/23 04:11:24;;;;;;;18.48;4.90;;;;;;;26.32;100.00;100725.02;1848200;77;21440;-80
2021/06/23 04:13:50;;;;;;;17.95;4.75;;;;;;;26.63;100.00;100715.00;1848134;77;20884;-81
2021/06/23 04:16:16;;;;;;;24.77;4.90;;;;;;;27.00;100.00;100715.84;1848354;77;21059;-80
2021/06/23 04:18:41;;;;;;;12.82;4.25;;;;;;;27.09;100.00;100719.16;1848058;77;20939;-80
2021/06/23 04:21:07;;;;;;;21.77;3.72;;;;;;;27.05;100.00;100718.31;1848182;77;20888;-84
2021/06/23 04:23:34;;;;;;;15.63;4.00;;;;;;;26.84;100.00;100725.06;1848240;77;21538;-80
2021/06/23 04:26:01;;;;;;;13.20;4.10;;;;;;;26.68;100.00;100724.39;1847752;77;21050;-84
2021/06/23 04:28:27;;;;;;;15.60;3.60;;;;;;;26.53;100.00;100724.66;1847692;77;21055;-80
2021/06/23 04:30:53;;;;;;;9.73;4.08;;;;;;;26.38;100.00;100731.84;1848116;77;21002;-81
2021/06/23 04:33:19;;;;;;;9.08;3.75;;;;;;;26.31;100.00;100734.48;1848227;77;20956;-77
2021/06/23 04:35:47;;;;;;;11.40;3.65;;;;;;;26.37;100.00;100744.66;1848185;77;20872;-81
2021/06/23 04:38:13;;;;;;;14.45;4.47;;;;;;;26.34;100.00;100746.19;1848002;77;20984;-81
2021/06/23 04:40:40;;;;;;;16.62;4.10;;;;;;;26.37;100.00;100752.37;1848269;77;21132;-79
2021/06/23 04:43:06;;;;;;;14.15;4.10;;;;;;;26.44;100.00;100758.61;1847753;77;21003;-80
2021/06/23 04:45:32;;;;;;;23.83;3.87;;;;;;;26.57;100.00;100768.98;1848075;77;21498;-81
2021/06/23 04:47:59;;;;;;;12.13;4.03;;;;;;;26.88;100.00;100770.76;1847784;77;21015;-83
2021/06/23 04:50:25;;;;;;;10.98;4.20;;;;;;;27.13;100.00;100763.72;1847783;77;21018;-81
2021/06/23 04:52:51;;;;;;;7.80;3.25;;;;;;;27.44;100.00;100763.86;1828326;77;21027;-80
2021/06/23 04:55:17;;;;;;;15.18;3.42;;;;;;;27.80;100.00;100766.66;1816236;77;20873;-78
2021/06/23 04:57:44;;;;;;;12.05;3.77;;;;;;;28.25;100.00;100768.45;1780178;80;20864;-80
2021/06/23 05:00:11;;;;;;;13.10;3.92;;;;;;;29.07;100.00;100765.87;1780512;80;21050;-86
2021/06/23 05:02:38;;;;;;;14.18;4.33;;;;;;;29.90;100.00;100773.50;1780458;80;21166;-85
2021/06/23 05:05:06;;;;;;;20.77;3.72;;;;;;;30.16;100.00;100774.64;1780664;80;21050;-81
2021/06/23 05:07:31;;;;;;;16.65;3.95;;;;;;;30.47;100.00;100775.19;1780145;80;21003;-80
2021/06/23 05:09:57;;;;;;;22.35;4.80;;;;;;;30.75;100.00;100784.23;1780473;80;21656;-80
2021/06/23 05:12:27;;;;;;;19.00;4.65;;;;;;;30.98;99.78;100790.89;1776148;80;20888;-80
2021/06/23 05:14:51;;;;;;;26.75;4.47;;;;;;;31.26;96.06;100794.28;1749735;82;21483;-81
2021/06/23 05:17:17;;;;;;;22.02;4.58;;;;;;;31.31;94.72;100793.11;1749813;82;21063;-81
2021/06/23 05:19:43;;;;;;;19.15;3.85;;;;;;;31.62;91.73;100800.70;1749689;82;20896;-81
2021/06/23 05:22:12;;;;;;;21.57;4.37;;;;;;;31.81;92.33;100799.48;1749697;82;21013;-80
2021/06/23 05:24:40;;;;;;;15.75;3.70;;;;;;;32.44;90.66;100796.93;1749274;82;21039;-80
2021/06/23 05:27:09;;;;;;;13.18;4.53;;;;;;;32.53;86.57;100797.34;1749913;82;21030;-92
2021/06/23 05:29:36;;;;;;;13.40;3.70;;;;;;;32.71;89.77;100807.59;1772688;80;21204;-93
2021/06/23 05:32:02;;;;;;;23.95;5.12;;;;;;;32.94;85.62;100815.45;1777498;80;21036;-92
2021/06/23 05:34:31;;;;;;;19.95;4.22;;;;;;;32.50;81.92;100826.64;1777780;80;21169;-96
2021/06/23 05:36:58;;;;;;;12.90;4.08;;;;;;;32.21;88.73;100832.88;1777218;80;20988;-91
2021/06/23 05:39:25;;;;;;;16.75;4.33;;;;;;;32.42;85.70;100833.44;1777500;80;21005;-95
2021/06/23 05:41:55;;;;;;;19.32;4.65;;;;;;;32.08;85.72;100833.31;1777803;80;21068;-96
2021/06/23 05:44:22;;;;;;;14.78;4.22;;;;;;;32.06;88.94;100829.33;1777180;80;21028;-94
2021/06/23 05:46:48;;;;;;;16.65;4.60;;;;;;;31.81;87.89;100841.89;1776954;80;21016;-91
2021/06/23 05:49:14;;;;;;;25.30;4.40;;;;;;;31.42;90.80;100846.27;1777559;80;20941;-92
2021/06/23 05:51:40;;;;;;;15.08;4.35;;;;;;;31.03;94.95;100851.72;1777476;80;21661;-94
2021/06/23 05:54:06;;;;;;;18.20;4.37;;;;;;;30.92;98.36;100850.92;1777579;80;21062;-90
2021/06/23 05:56:34;;;;;;;19.02;4.12;;;;;;;30.78;98.69;100843.28;1777769;80;20881;-94
2021/06/23 05:59:00;;;;;;;13.45;3.90;;;;;;;30.93;98.84;100830.23;1715176;82;21525;-95
2021/06/23 06:01:26;;;;;;;19.30;4.15;;;;;;;31.16;98.86;100817.36;1716452;79;21115;-94
2021/06/23 06:03:53;;;;;;;19.23;4.92;;;;;;;32.20;97.29;100818.75;1715706;83;20961;-95
2021/06/23 06:06:19;;;;;;;18.15;4.42;;;;;;;33.10;87.84;100818.59;1713446;82;21960;-94
2021/06/23 06:08:45;;;;;;;16.70;4.60;;;;;;;33.96;82.44;100825.48;1715304;83;21016;-91
2021/06/23 06:11:11;;;;;;;12.13;4.87;;;;;;;34.48;80.21;100829.53;1715351;83;20921;-92
2021/06/23 06:13:37;;;;;;;12.37;4.72;;;;;;;35.36;77.75;100837.16;1715429;82;21008;-85
2021/06/23 06:16:03;;;;;;;19.23;4.33;;;;;;;36.42;73.64;100837.11;1715197;83;22512;-84
2021/06/23 06:18:29;;;;;;;14.80;5.00;;;;;;;37.12;64.46;100831.17;1715223;83;21025;-82
2021/06/23 06:20:57;;;;;;;16.20;4.37;;;;;;;37.45;59.05;100831.98;1715036;83;21044;-85
2021/06/23 06:23:23;;;;;;;11.20;4.60;;;;;;;38.02;59.66;100831.78;1714878;83;20996;-86
2021/06/23 06:25:49;;;;;;;15.40;4.72;;;;;;;38.33;56.45;100837.75;1715002;83;20961;-83
2021/06/23 06:28:15;;;;;;;18.15;5.10;;;;;;;38.62;55.28;100843.34;1715328;83;21032;-87
2021/06/23 06:30:41;;;;;;;16.95;4.55;;;;;;;38.69;53.65;100842.36;1715218;82;21104;-84
2021/06/23 06:33:08;;;;;;;14.00;5.10;;;;;;;39.09;50.96;100831.45;1735893;82;20855;-84
2021/06/23 06:35:34;;;;;;;18.62;5.08;;;;;;;39.40;49.33;100851.43;1749553;82;21055;-84
2021/06/23 06:38:01;;;;;;;17.80;5.05;;;;;;;39.11;49.34;100854.36;1749856;82;21061;-84
2021/06/23 06:40:27;;;;;;;10.93;4.65;;;;;;;39.22;51.05;100852.61;1750040;82;21438;-85
2021/06/23 06:42:53;;;;;;;16.00;4.22;;;;;;;39.37;48.21;100845.91;1725037;82;21062;-85
2021/06/23 06:45:20;;;;;;;18.73;5.30;;;;;;;39.34;48.07;100846.82;1749879;82;21002;-85
2021/06/23 06:47:46;;;;;;;27.05;6.08;;;;;;;38.98;46.88;100849.35;1749795;82;21050;-84
2021/06/23 06:50:12;;;;;;;26.48;5.72;;;;;;;38.80;46.75;100853.48;1724768;82;21034;-83
2021/06/23 06:52:39;;;;;;;14.53;5.45;;;;;;;38.93;48.04;100851.31;1749855;82;21026;-90
2021/06/23 06:55:07;;;;;;;22.32;5.03;;;;;;;39.49;47.72;100853.56;1761017;79;21212;-83
2021/06/23 06:57:33;;;;;;;38.08;7.87;;;;;;;39.53;43.96;100848.58;1815115;79;20989;-84
2021/06/23 07:00:00;;;;;;;39.08;9.03;;;;;;;39.40;44.96;100843.59;1811314;79;20989;-85
2021/06/23 07:02:26;;;;;;;30.43;7.62;;;;;;;39.49;46.24;100843.69;1815202;79;20981;-85
2021/06/23 07:04:52;;;;;;;27.55;6.28;;;;;;;39.69;46.81;100839.97;1792037;78;21067;-84
2021/06/23 07:07:18;;;;;;;15.90;5.12;;;;;;;39.92;46.07;100837.38;1815017;78;21026;-85
2021/06/23 07:09:44;;;;;;;19.48;5.17;;;;;;;39.97;44.51;100831.76;1815130;78;20862;-85
2021/06/23 07:12:11;;;;;;;28.20;5.75;;;;;;;40.11;43.39;100828.42;1815233;78;21008;-83
2021/06/23 07:14:36;;;;;;;12.55;5.50;;;;;;;40.28;42.71;100823.40;1815122;78;20990;-85
2021/06/23 07:17:03;;;;;;;12.33;5.42;;;;;;;41.46;42.41;100815.13;1810998;79;21697;-83
2021/06/23 07:19:29;;;;;;;12.47;5.35;;;;;;;41.88;42.35;100817.38;1815083;78;21959;-84
2021/06/23 07:21:54;;;;;;;20.37;5.15;;;;;;;42.64;41.50;100812.72;1815144;78;20870;-85
2021/06/23 07:24:21;;;;;;;17.50;5.62;;;;;;;43.37;39.23;100803.09;1815221;78;21007;-85
2021/06/23 07:26:54;;;;;;;13.78;5.40;;;;;;;43.99;37.75;100816.52;1815034;79;20984;-86
2021/06/23 07:29:16;;;;;;;19.87;5.58;;;;;;;44.70;36.76;100811.03;1811134;79;21000;-85
2021/06/23 07:31:50;;;;;;;20.32;5.72;;;;;;;45.06;33.95;100814.05;1815123;79;22644;-82
2021/06/23 07:36:42;;;;;;;17.00;5.08;;;;;;;44.35;32.96;100810.34;1815170;78;21024;-85
2021/06/23 07:39:11;;;;;;;16.23;4.80;;;;;;;43.97;33.77;100806.91;1814740;78;20994;-85
2021/06/23 07:41:43;;;;;;;;;;;;;;;44.41;33.88;100811.86;1817748;78;21020;-85
2021/06/23 07:44:11;;;;;;;;;;;;;;;44.15;31.96;100813.05;1817765;79;21242;-80
2021/06/23 07:46:40;;;;;;;23.10;5.37;;;;;;;44.14;31.18;100817.95;1814803;79;20392;-85
2021/06/23 07:49:08;;;;;;;13.38;4.75;;;;;;;43.79;31.55;100812.09;1814453;78;20981;-84
2021/06/23 07:56:55;;;;;;;12.35;4.00;;;;;;;44.12;30.21;100823.33;1815338;78;20926;-85
2021/06/23 08:10:05;;;;;;;11.78;3.42;;;;;;;43.18;33.00;100832.21;1805175;79;21007;-88
2021/06/23 08:12:30;;;;;;;20.68;4.17;;;;;;;43.71;31.43;100833.62;1803148;78;20987;-86
2021/06/23 09:26:29;;;;;;;24.82;4.70;;;;;;;41.06;35.54;100822.44;1841663;77;21087;-85
2021/06/23 09:29:12;;;;;;;12.75;3.35;;;;;;;40.58;36.07;100827.49;1848360;77;20964;-87
2021/06/23 09:32:01;;;;;;;14.68;3.98;;;;;;;40.21;38.12;100821.45;1848809;77;21015;-88
2021/06/23 09:34:38;;;;;;;14.98;3.75;;;;;;;39.78;38.85;100823.77;1848535;77;21019;-87
2021/06/23 09:37:27;;;;;;;24.57;3.45;;;;;;;39.38;38.01;100823.50;1848317;77;21050;-87
2021/06/23 09:40:30;;;;;;;18.95;4.05;;;;;;;39.10;38.93;100820.36;1848811;77;21068;-87
2021/06/23 09:43:02;;;;;;;30.05;4.15;;;;;;;39.25;39.89;100821.47;1847905;77;20928;-86
2021/06/23 09:45:38;;;;;;;14.05;3.37;;;;;;;39.65;39.33;100828.62;1848641;77;21039;-90
2021/06/23 09:48:03;;;;;;;21.87;4.12;;;;;;;39.64;38.94;100836.94;1844452;77;20968;-86
2021/06/23 09:50:32;;;;;;;15.78;3.45;;;;;;;39.19;39.95;100835.19;1829397;77;21018;-87
2021/06/23 09:53:08;;;;;;;20.10;3.65;;;;;;;39.07;39.77;100841.79;1815294;79;21138;-86
2021/06/23 09:55:41;;;;;;;14.85;3.58;;;;;;;38.21;41.74;100843.52;1647034;83;21087;-88
2021/06/23 09:58:20;;;;;;;17.30;3.55;;;;;;;38.21;41.24;100837.89;1553739;91;21121;-88
2021/06/23 10:01:06;;;;;;;20.62;3.30;;;;;;;37.81;42.21;100838.13;1586139;89;21217;-87
2021/06/23 10:03:55;;;;;;;25.25;3.25;;;;;;;37.70;44.03;100831.98;1587716;89;21379;-84
2021/06/23 10:06:30;;;;;;;8.30;3.15;;;;;;;37.91;42.90;100828.59;1556959;91;22140;-85
2021/06/23 10:09:26;;;;;;;20.25;3.70;;;;;;;38.31;43.09;100835.38;1573171;91;21022;-87
2021/06/23 10:12:08;;;;;;;24.40;4.22;;;;;;;37.82;44.45;100843.13;1573204;91;21179;-86
2021/06/23 10:14:45;;;;;;;24.90;3.47;;;;;;;37.49;44.43;100840.36;1573486;91;21090;-88
2021/06/23 10:17:12;;;;;;;21.17;3.77;;;;;;;37.28;45.63;100845.25;1504357;95;21117;-87
2021/06/23 10:19:41;;;;;;;20.48;3.55;;;;;;;37.05;46.00;100846.19;1504397;95;21168;-87
2021/06/23 10:22:08;;;;;;;30.40;4.03;;;;;;;37.12;47.83;100844.44;1504111;95;21162;-87
2021/06/23 10:24:35;;;;;;;28.30;4.12;;;;;;;37.16;47.32;100847.35;1503940;95;21083;-89
2021/06/23 10:27:07;;;;;;;19.37;3.77;;;;;;;36.76;47.01;100848.81;1503259;94;21688;-88
2021/06/23 10:29:35;;;;;;;30.75;3.60;;;;;;;36.70;48.09;100847.74;1500155;95;21337;-87
2021/06/23 10:32:03;;;;;;;13.95;3.37;;;;;;;36.70;48.09;100849.77;1502237;94;21178;-84
2021/06/23 10:34:29;;;;;;;17.17;3.40;;;;;;;36.52;48.92;100848.13;1521089;94;21006;-85
2021/06/23 10:36:57;;;;;;;17.48;3.52;;;;;;;36.39;51.11;100852.18;1486450;96;20985;-87
2021/06/23 10:39:31;;;;;;;27.42;3.20;;;;;;;36.52;50.36;100855.77;1486182;95;21096;-87
2021/06/23 10:42:01;;;;;;;21.33;3.47;;;;;;;36.30;49.64;100859.59;1484047;96;21145;-88
2021/06/23 10:44:40;;;;;;;19.23;3.30;;;;;;;36.06;52.82;100854.03;1486185;96;22487;-87
2021/06/23 10:47:08;;;;;;;27.77;3.62;;;;;;;36.16;52.44;100850.22;1441252;98;21115;-92
2021/06/23 10:49:46;;;;;;;20.97;4.08;;;;;;;36.16;51.91;100854.42;1441324;99;21517;-87
2021/06/23 10:52:30;;;;;;;27.98;4.42;;;;;;;36.10;52.61;100851.94;1453612;98;21097;-87
2021/06/23 10:55:23;;;;;;;27.82;4.15;;;;;;;36.09;50.20;100844.75;1503030;92;21088;-86
2021/06/23 10:57:52;;;;;;;;;;;;;;;35.98;51.17;100844.74;1482151;94;21064;-87
2021/06/23 11:00:27;;;;;;;28.40;3.92;;;;;;;35.67;53.98;100840.66;1498315;94;20251;-79
2021/06/23 11:03:12;;;;;;;21.87;3.62;;;;;;;35.78;55.41;100841.89;1552223;87;21079;-80
2021/06/23 11:05:51;;;;;;;22.42;4.15;;;;;;;35.98;52.33;100838.52;1528270;93;21577;-82
2021/06/23 11:08:29;;;;;;;18.10;4.08;;;;;;;36.32;52.94;100834.05;1530398;93;21265;-83
2021/06/23 11:10:59;;;;;;;28.80;4.45;;;;;;;36.51;53.63;100833.89;1535148;92;21205;-83
2021/06/23 11:13:39;;;;;;;13.45;4.05;;;;;;;36.56;52.95;100834.81;1565048;88;21150;-83
2021/06/23 11:16:10;;;;;;;25.75;3.60;;;;;;;36.33;51.16;100830.66;1624063;87;21617;-82
2021/06/23 11:18:40;;;;;;;28.83;4.05;;;;;;;36.14;51.62;100825.99;1623641;87;20968;-82
2021/06/23 11:21:17;;;;;;;32.65;4.60;;;;;;;36.20;51.91;100833.30;1624375;88;21091;-83
2021/06/23 11:23:55;;;;;;;22.93;3.87;;;;;;;36.27;51.77;100840.20;1623984;88;21982;-84
2021/06/23 11:26:26;;;;;;;29.15;4.05;;;;;;;36.42;52.55;100832.27;1596985;88;21346;-82
2021/06/23 11:29:15;;;;;;;29.42;4.42;;;;;;;36.78;51.46;100828.73;1584401;89;21090;-84
2021/06/23 11:34:42;;;;;;;25.27;3.52;;;;;;;37.02;50.03;100827.39;1498403;94;21070;-81
2021/06/23 11:37:13;;;;;;;25.05;4.33;;;;;;;36.88;49.25;100833.30;1491156;95;21672;-82
2021/06/23 11:39:40;;;;;;;33.30;4.50;;;;;;;36.96;50.20;100833.33;1458982;97;21118;-81
2021/06/23 11:42:07;;;;;;;27.32;3.87;;;;;;;36.99;51.35;100838.07;1459243;98;21685;-80
2021/06/23 11:44:35;;;;;;;17.30;4.17;;;;;;;37.21;51.15;100826.34;1454863;98;21166;-80
2021/06/23 11:47:01;;;;;;;23.38;3.72;;;;;;;37.76;50.32;100826.00;1453951;98;21636;-80
2021/06/23 11:49:30;;;;;;;34.83;4.75;;;;;;;37.84;48.05;100826.61;1454241;98;21084;-82
2021/06/23 11:52:03;;;;;;;27.87;4.47;;;;;;;37.60;49.75;100832.45;1436446;99;21671;-81
2021/06/23 11:54:29;;;;;;;21.50;4.15;;;;;;;37.51;50.99;100829.47;1379877;104;21121;-81
2021/06/23 11:56:55;;;;;;;25.10;3.77;;;;;;;37.56;51.03;100823.91;1364495;104;21694;-81
2021/06/23 11:59:21;;;;;;;22.90;3.90;;;;;;;37.63;51.23;100832.97;1364465;104;21674;-82
2021/06/23 12:01:47;;;;;;;28.83;3.72;;;;;;;37.40;50.50;100826.10;1389672;100;21169;-83
2021/06/23 12:04:14;;;;;;;22.93;4.45;;;;;;;37.23;50.70;100819.06;1442421;98;21025;-81
2021/06/23 12:06:40;;;;;;;24.77;4.33;;;;;;;37.29;50.41;100826.36;1448192;98;21588;-81
2021/06/23 12:09:06;;;;;;;37.13;4.87;;;;;;;37.23;47.89;100824.68;1434251;100;21707;-81
2021/06/23 12:11:32;;;;;;;25.05;3.70;;;;;;;37.43;49.16;100829.44;1397983;100;20982;-83
2021/06/23 12:13:57;;;;;;;23.38;3.75;;;;;;;37.37;47.94;100822.77;1431069;100;21767;-83
2021/06/23 12:16:23;;;;;;;35.85;4.12;;;;;;;37.27;50.33;100821.19;1430882;100;20986;-82
2021/06/23 12:18:55;;;;;;;20.02;3.65;;;;;;;37.15;48.64;100819.67;1430910;100;21162;-79
2021/06/23 12:21:21;;;;;;;18.03;3.80;;;;;;;37.26;51.57;100822.40;1430707;99;21298;-80
2021/06/23 12:23:46;;;;;;;25.02;4.10;;;;;;;37.66;50.27;100817.23;1494136;95;21083;-80
2021/06/23 12:26:12;;;;;;;27.65;3.83;;;;;;;37.77;48.65;100823.97;1509349;93;21148;-80
2021/06/23 12:28:39;;;;;;;27.20;4.60;;;;;;;37.81;47.01;100824.68;1505189;95;20902;-83
2021/06/23 12:31:05;;;;;;;20.37;4.47;;;;;;;37.89;47.27;100823.27;1538051;92;21071;-81
2021/06/23 12:33:31;;;;;;;28.23;4.20;;;;;;;37.76;48.67;100816.15;1557850;92;21051;-80
2021/06/23 12:35:57;;;;;;;33.18;4.50;;;;;;;37.40;47.77;100817.05;1554533;87;20903;-80
2021/06/23 12:38:23;;;;;;;38.75;4.92;;;;;;;37.15;49.18;100812.05;1635076;87;21967;-82
2021/06/23 12:40:50;;;;;;;42.98;3.87;;;;;;;37.04;47.52;100805.27;1635312;87;20910;-85
2021/06/23 12:43:17;;;;;;;40.40;4.78;;;;;;;37.05;47.30;100813.08;1634801;87;21081;-79
2021/06/23 12:45:48;;;;;;;29.55;4.15;;;;;;;36.98;48.59;100809.80;1634738;87;21026;-80
2021/06/23 12:48:14;;;;;;;29.85;4.22;;;;;;;36.87;49.47;100817.68;1655994;83;21006;-81
2021/06/23 12:50:40;;;;;;;41.65;5.17;;;;;;;36.88;49.28;100816.44;1739338;78;22849;-83
2021/06/23 12:53:06;;;;;;;30.92;4.17;;;;;;;36.77;50.63;100820.10;1815009;79;21563;-84
2021/06/23 12:55:33;;;;;;;32.93;3.98;;;;;;;36.74;51.84;100820.39;1834303;77;20921;-81
2021/06/23 12:57:59;;;;;;;27.52;3.67;;;;;;;36.86;50.98;100819.51;1848399;77;20952;-89